^^
Saratoga-Weather Station Historical Data
Daily Summary for April 16, 2020 Units:  Metric    English   Both
Daily Weekly Monthly Yearly Custom
  High: Low: Average:
Temperature: 11.9 °C 3.9 °C 7.8 °C
Dew Point: 8.3 °C 3.2 °C 6.4 °C
Humidity: 96% 78% 91%
Wind Speed: 13km/h 0km/h 0.9km/h
Wind Gust: 17.7km/h - -
Wind- - SE
Pressure: 1026.8 hPa 1021.3 hPa -
Precipitation: 0.0 mm    
Historical Graphs
 
 
Tabular Data for April 16, 2020
Time Temperature Dew Point Pressure Wind Wind Speed Wind Gust Humidity Rainfall Rate (Hourly) solar
00:02 10.4 °C 7.6 °C 1023.0 hPa Calm   8 km/h 83% 0.0 mm 0 W/m2
00:07 10.4 °C 7.6 °C 1023.0 hPa Calm     83% 0.0 mm 0 W/m2
00:12 10.3 °C 7.5 °C 1023.0 hPa WSW 3.2 km/h 6.4 km/h 83% 0.0 mm 0 W/m2
00:17 10.4 °C 7.6 °C 1023.0 hPa Calm     83% 0.0 mm 0 W/m2
00:22 10.4 °C 7.6 °C 1023.4 hPa West 6.4 km/h 12.9 km/h 83% 0.0 mm 0 W/m2
00:27 10.3 °C 7.5 °C 1023.4 hPa Calm   4.8 km/h 83% 0.0 mm 0 W/m2
00:32 10.4 °C 7.6 °C 1023.4 hPa Calm   1.6 km/h 83% 0.0 mm 0 W/m2
00:37 10.4 °C 7.6 °C 1023.4 hPa WSW 3.2 km/h 9.7 km/h 83% 0.0 mm 0 W/m2
00:42 10.3 °C 7.5 °C 1023.4 hPa Calm   1.6 km/h 83% 0.0 mm 0 W/m2
00:47 10.1 °C 7.5 °C 1023.4 hPa SW 1.4 km/h 8 km/h 84% 0.0 mm 0 W/m2
00:52 9.9 °C 7.5 °C 1023.4 hPa Calm     85% 0.0 mm 0 W/m2
00:57 9.8 °C 7.4 °C 1023.4 hPa Calm   3.2 km/h 85% 0.0 mm 0 W/m2
01:02 9.7 °C 7.3 °C 1023.4 hPa Calm     85% 0.0 mm 0 W/m2
01:07 9.4 °C 7.2 °C 1023.4 hPa Calm   4.8 km/h 86% 0.0 mm 0 W/m2
01:12 9.3 °C 7.1 °C 1023.7 hPa Calm     86% 0.0 mm 0 W/m2
01:17 9.3 °C 7.2 °C 1023.7 hPa Calm   3.2 km/h 87% 0.0 mm 0 W/m2
01:22 9.2 °C 7.1 °C 1023.7 hPa Calm     87% 0.0 mm 0 W/m2
01:27 9.2 °C 7.1 °C 1023.7 hPa South 3.2 km/h 4.8 km/h 87% 0.0 mm 0 W/m2
01:32 9.1 °C 7.1 °C 1023.7 hPa Calm   4.8 km/h 87% 0.0 mm 0 W/m2
01:37 8.9 °C 6.9 °C 1023.7 hPa Calm   1.6 km/h 87% 0.0 mm 0 W/m2
01:42 8.8 °C 6.9 °C 1023.7 hPa West 4.7 km/h 6.4 km/h 88% 0.0 mm 0 W/m2
01:47 8.7 °C 6.7 °C 1023.7 hPa Calm   3.2 km/h 87% 0.0 mm 0 W/m2
01:52 8.6 °C 6.7 °C 1023.7 hPa SSW 1.4 km/h 4.8 km/h 88% 0.0 mm 0 W/m2
01:57 8.6 °C 6.9 °C 1024.0 hPa Calm   3.2 km/h 89% 0.0 mm 0 W/m2
02:02 8.7 °C 7 °C 1023.7 hPa Calm   1.6 km/h 89% 0.0 mm 0 W/m2
02:07 8.6 °C 6.7 °C 1024.0 hPa Calm     88% 0.0 mm 0 W/m2
02:12 8.3 °C 6.4 °C 1024.0 hPa Calm   1.6 km/h 88% 0.0 mm 0 W/m2
02:17 8.2 °C 6.3 °C 1024.0 hPa Calm   1.6 km/h 88% 0.0 mm 0 W/m2
02:22 8 °C 6.3 °C 1024.0 hPa Calm     89% 0.0 mm 0 W/m2
02:27 7.9 °C 6.4 °C 1024.0 hPa Calm   1.6 km/h 90% 0.0 mm 0 W/m2
02:32 7.8 °C 6.3 °C 1024.4 hPa WSW 3.2 km/h 3.2 km/h 90% 0.0 mm 0 W/m2
02:37 7.8 °C 6.4 °C 1024.4 hPa Calm   3.2 km/h 91% 0.0 mm 0 W/m2
02:42 8 °C 6.8 °C 1024.4 hPa Calm     92% 0.0 mm 0 W/m2
02:47 8.2 °C 7 °C 1024.4 hPa Calm     92% 0.0 mm 0 W/m2
02:52 8.4 °C 7.2 °C 1024.7 hPa Calm   3.2 km/h 92% 0.0 mm 0 W/m2
02:57 8.6 °C 7.2 °C 1024.7 hPa Calm   3.2 km/h 91% 0.0 mm 0 W/m2
03:02 8.7 °C 7.3 °C 1024.7 hPa Calm   1.6 km/h 91% 0.0 mm 0 W/m2
03:07 8.7 °C 7.3 °C 1024.7 hPa Calm   4.8 km/h 91% 0.0 mm 0 W/m2
03:12 8.7 °C 7.2 °C 1024.7 hPa SSE 3.2 km/h 3.2 km/h 90% 0.0 mm 0 W/m2
03:17 8.7 °C 7.2 °C 1024.7 hPa Calm     90% 0.0 mm 0 W/m2
03:22 8.7 °C 7.2 °C 1024.7 hPa Calm     90% 0.0 mm 0 W/m2
03:27 8.7 °C 7.2 °C 1024.7 hPa Calm     90% 0.0 mm 0 W/m2
03:32 8.6 °C 7.1 °C 1024.7 hPa Calm   3.2 km/h 90% 0.0 mm 0 W/m2
03:37 8.6 °C 7.1 °C 1024.7 hPa Calm     90% 0.0 mm 0 W/m2
03:42 8.6 °C 7.2 °C 1024.7 hPa Calm   3.2 km/h 91% 0.0 mm 0 W/m2
03:47 8.6 °C 7.2 °C 1025.1 hPa Calm     91% 0.0 mm 0 W/m2
03:52 8.6 °C 7.2 °C 1025.1 hPa Calm   3.2 km/h 91% 0.0 mm 0 W/m2
03:57 8.6 °C 7.2 °C 1025.1 hPa Calm     91% 0.0 mm 0 W/m2
04:02 8.6 °C 7.2 °C 1025.1 hPa Calm     91% 0.0 mm 0 W/m2
04:07 8.6 °C 7.2 °C 1025.1 hPa Calm   1.6 km/h 91% 0.0 mm 0 W/m2
04:12 8.6 °C 7.2 °C 1025.1 hPa Calm   1.6 km/h 91% 0.0 mm 0 W/m2
04:17 8.6 °C 7.2 °C 1025.1 hPa Calm     91% 0.0 mm 0 W/m2
04:22 8.6 °C 7.2 °C 1025.1 hPa Calm   3.2 km/h 91% 0.0 mm 0 W/m2
04:27 8.7 °C 7.5 °C 1025.4 hPa Calm     92% 0.0 mm 0 W/m2
04:32 8.7 °C 7.5 °C 1025.4 hPa Calm   3.2 km/h 92% 0.0 mm 0 W/m2
04:37 8.7 °C 7.5 °C 1025.4 hPa Calm     92% 0.0 mm 0 W/m2
04:42 8.7 °C 7.5 °C 1025.4 hPa Calm     92% 0.0 mm 0 W/m2
04:47 8.7 °C 7.5 °C 1025.4 hPa Calm     92% 0.0 mm 0 W/m2
04:52 8.6 °C 7.4 °C 1025.4 hPa Calm     92% 0.0 mm 0 W/m2
04:57 8.6 °C 7.2 °C 1025.4 hPa Calm     91% 0.0 mm 0 W/m2
05:03 8.5 °C 7.1 °C 1025.4 hPa Calm     91% 0.0 mm 0 W/m2
05:08 8.4 °C 7 °C 1025.4 hPa Calm     91% 0.0 mm 0 W/m2
05:13 8.3 °C 7.1 °C 1025.4 hPa Calm     92% 0.0 mm 0 W/m2
05:18 8.3 °C 7.1 °C 1025.7 hPa Calm     92% 0.0 mm 0 W/m2
05:23 8.3 °C 7.1 °C 1025.4 hPa Calm     92% 0.0 mm 0 W/m2
05:28 8.3 °C 7.1 °C 1025.4 hPa Calm     92% 0.0 mm 0 W/m2
05:33 8.3 °C 7.1 °C 1025.7 hPa Calm     92% 0.0 mm 0 W/m2
05:38 8.2 °C 7 °C 1025.7 hPa Calm     92% 0.0 mm 0 W/m2
05:43 8.2 °C 7 °C 1025.7 hPa Calm   3.2 km/h 92% 0.0 mm 0 W/m2
05:48 8.1 °C 6.9 °C 1025.4 hPa Calm   1.6 km/h 92% 0.0 mm 0 W/m2
05:53 8.1 °C 6.9 °C 1025.7 hPa Calm   3.2 km/h 92% 0.0 mm 0 W/m2
05:58 8.1 °C 6.9 °C 1025.7 hPa Calm     92% 0.0 mm 0 W/m2
06:03 7.9 °C 6.7 °C 1025.7 hPa Calm     92% 0.0 mm 0 W/m2
06:08 7.8 °C 6.6 °C 1025.7 hPa Calm     92% 0.0 mm 0 W/m2
06:13 7.7 °C 6.5 °C 1025.7 hPa Calm     92% 0.0 mm 0 W/m2
06:18 7.6 °C 6.4 °C 1025.7 hPa Calm     92% 0.0 mm 0 W/m2
06:23 7.5 °C 6.4 °C 1025.7 hPa Calm     93% 0.0 mm 0 W/m2
06:28 7.3 °C 6.2 °C 1025.7 hPa Calm     93% 0.0 mm 0 W/m2
06:34 7.2 °C 6 °C 1025.7 hPa SSW 1.4 km/h 3.2 km/h 92% 0.0 mm 0 W/m2
06:39 7.1 °C 6 °C 1025.7 hPa Calm     93% 0.0 mm 0 W/m2
06:44 7 °C 5.9 °C 1025.7 hPa Calm     93% 0.0 mm 0 W/m2
06:49 6.9 °C 5.8 °C 1025.7 hPa Calm     93% 0.0 mm 0 W/m2
06:54 6.9 °C 5.8 °C 1025.7 hPa Calm     93% 0.0 mm 0 W/m2
06:59 6.9 °C 6 °C 1025.7 hPa Calm     94% 0.0 mm 0 W/m2
07:04 6.9 °C 6 °C 1025.7 hPa Calm     94% 0.0 mm 0 W/m2
07:09 6.9 °C 6 °C 1025.7 hPa Calm     94% 0.0 mm 0 W/m2
07:14 6.9 °C 6 °C 1026.1 hPa Calm     94% 0.0 mm 0 W/m2
07:19 6.9 °C 6 °C 1026.1 hPa Calm   1.6 km/h 94% 0.0 mm 0 W/m2
07:24 6.8 °C 5.9 °C 1026.1 hPa Calm     94% 0.0 mm 0 W/m2
07:29 6.7 °C 5.8 °C 1026.1 hPa Calm   1.6 km/h 94% 0.0 mm 0 W/m2
07:34 6.6 °C 5.7 °C 1026.1 hPa Calm     94% 0.0 mm 0 W/m2
07:39 6.5 °C 5.6 °C 1026.1 hPa Calm     94% 0.0 mm 0 W/m2
07:44 6.4 °C 5.5 °C 1026.1 hPa Calm     94% 0.0 mm 0 W/m2
07:49 6.3 °C 5.4 °C 1026.1 hPa Calm     94% 0.0 mm 0 W/m2
07:54 6.2 °C 5.3 °C 1026.1 hPa Calm     94% 0.0 mm 0 W/m2
07:59 6.2 °C 5.3 °C 1026.1 hPa Calm     94% 0.0 mm 0 W/m2
08:04 6.1 °C 5.2 °C 1026.1 hPa Calm     94% 0.0 mm 0 W/m2
08:09 6 °C 5.1 °C 1026.1 hPa Calm     94% 0.0 mm 0 W/m2
08:14 5.9 °C 5.2 °C 1026.1 hPa Calm     95% 0.0 mm 0 W/m2
08:19 5.9 °C 5.2 °C 1026.4 hPa Calm     95% 0.0 mm 0 W/m2
08:24 5.9 °C 5.2 °C 1026.4 hPa Calm     95% 0.0 mm 0 W/m2
08:29 5.8 °C 5.1 °C 1026.4 hPa Calm     95% 0.0 mm 5 W/m2
08:34 5.8 °C 5.1 °C 1026.4 hPa Calm     95% 0.0 mm 11 W/m2
08:39 5.9 °C 5.2 °C 1026.4 hPa Calm     95% 0.0 mm 14 W/m2
08:44 6.1 °C 5.4 °C 1026.4 hPa Calm     95% 0.0 mm 18 W/m2
08:49 6.1 °C 5.5 °C 1026.4 hPa Calm     96% 0.0 mm 19 W/m2
08:54 6.1 °C 5.4 °C 1026.8 hPa Calm     95% 0.0 mm 28 W/m2
08:59 6.1 °C 5.4 °C 1026.8 hPa Calm     95% 0.0 mm 32 W/m2
09:04 6.1 °C 5.5 °C 1026.8 hPa South 1.4 km/h 3.2 km/h 96% 0.0 mm 18 W/m2
09:09 6.2 °C 5.6 °C 1026.8 hPa Calm   4.8 km/h 96% 0.0 mm 16 W/m2
09:14 6.2 °C 5.5 °C 1026.8 hPa Calm     95% 0.0 mm 16 W/m2
09:20 6.2 °C 5.5 °C 1026.8 hPa Calm     95% 0.0 mm 18 W/m2
09:25 6.1 °C 5.4 °C 1026.8 hPa Calm     95% 0.0 mm 18 W/m2
09:30 6.1 °C 5.4 °C 1026.8 hPa Calm     95% 0.0 mm 19 W/m2
09:35 6.1 °C 5.4 °C 1026.8 hPa Calm     95% 0.0 mm 19 W/m2
09:40 6.1 °C 5.4 °C 1026.8 hPa Calm     95% 0.0 mm 21 W/m2
09:45 6 °C 5.3 °C 1026.8 hPa Calm     95% 0.0 mm 21 W/m2
09:50 6 °C 5.3 °C 1026.8 hPa Calm     95% 0.0 mm 21 W/m2
09:55 5.9 °C 5.2 °C 1026.4 hPa Calm     95% 0.0 mm 23 W/m2
10:00 5.9 °C 5.2 °C 1026.4 hPa Calm     95% 0.0 mm 25 W/m2
10:05 5.9 °C 5.2 °C 1026.8 hPa Calm     95% 0.0 mm 25 W/m2
10:10 6 °C 5.3 °C 1026.8 hPa Calm     95% 0.0 mm 25 W/m2
10:15 6.1 °C 5.5 °C 1026.8 hPa Calm     96% 0.0 mm 26 W/m2
10:20 6.1 °C 5.5 °C 1026.8 hPa Calm     96% 0.0 mm 28 W/m2
10:25 6.2 °C 5.6 °C 1026.8 hPa Calm     96% 0.0 mm 26 W/m2
10:30 6.2 °C 5.6 °C 1026.8 hPa Calm     96% 0.0 mm 33 W/m2
10:35 6.2 °C 5.6 °C 1026.8 hPa Calm     96% 0.0 mm 35 W/m2
10:40 6.3 °C 5.7 °C 1026.8 hPa Calm     96% 0.0 mm 30 W/m2
10:45 6.3 °C 5.7 °C 1026.8 hPa Calm     96% 0.0 mm 35 W/m2
10:51 6.4 °C 5.8 °C 1026.8 hPa Calm     96% 0.0 mm 39 W/m2
10:56 6.5 °C 5.9 °C 1026.4 hPa Calm     96% 0.0 mm 30 W/m2
11:01 6.6 °C 6 °C 1026.4 hPa Calm     96% 0.0 mm 30 W/m2
11:06 6.7 °C 6.1 °C 1026.4 hPa Calm     96% 0.0 mm 30 W/m2
11:11 6.7 °C 6.1 °C 1026.8 hPa Calm     96% 0.0 mm 30 W/m2
11:16 6.8 °C 6.2 °C 1026.4 hPa Calm     96% 0.0 mm 32 W/m2
11:21 6.9 °C 6.3 °C 1026.4 hPa Calm     96% 0.0 mm 33 W/m2
11:26 7.1 °C 6.5 °C 1026.4 hPa Calm     96% 0.0 mm 30 W/m2
11:31 7.3 °C 6.7 °C 1026.4 hPa Calm     96% 0.0 mm 30 W/m2
11:36 7.6 °C 7 °C 1026.4 hPa Calm   1.6 km/h 96% 0.0 mm 32 W/m2
11:41 7.8 °C 7.2 °C 1026.1 hPa Calm   3.2 km/h 96% 0.0 mm 33 W/m2
11:46 8.1 °C 7.3 °C 1026.1 hPa NE 3.2 km/h 4.8 km/h 95% 0.0 mm 33 W/m2
11:51 8.4 °C 7.5 °C 1025.7 hPa SE 1.4 km/h 4.8 km/h 94% 0.0 mm 35 W/m2
11:56 8.6 °C 7.5 °C 1025.7 hPa East 3.2 km/h 6.4 km/h 93% 0.0 mm 33 W/m2
12:01 8.8 °C 7.6 °C 1025.7 hPa Calm   3.2 km/h 92% 0.0 mm 32 W/m2
12:06 8.9 °C 7.7 °C 1025.7 hPa East 4.7 km/h 8 km/h 92% 0.0 mm 30 W/m2
12:11 9.2 °C 7.8 °C 1025.7 hPa ENE 6.4 km/h 8 km/h 91% 0.0 mm 32 W/m2
12:16 9.4 °C 7.8 °C 1025.7 hPa Calm   3.2 km/h 90% 0.0 mm 35 W/m2
12:21 9.5 °C 7.8 °C 1025.7 hPa East 4.7 km/h 8 km/h 89% 0.0 mm 35 W/m2
12:26 9.7 °C 7.8 °C 1025.7 hPa East 3.2 km/h 6.4 km/h 88% 0.0 mm 30 W/m2
12:31 9.8 °C 7.9 °C 1025.7 hPa East 1.4 km/h 3.2 km/h 88% 0.0 mm 30 W/m2
12:36 9.9 °C 7.8 °C 1025.4 hPa East 6.4 km/h 6.4 km/h 87% 0.0 mm 30 W/m2
12:41 10 °C 7.9 °C 1025.4 hPa East 3.2 km/h 6.4 km/h 87% 0.0 mm 30 W/m2
12:46 10.1 °C 7.9 °C 1025.4 hPa East 4.7 km/h 6.4 km/h 86% 0.0 mm 33 W/m2
12:51 10.1 °C 7.9 °C 1025.4 hPa ESE 3.2 km/h 3.2 km/h 86% 0.0 mm 30 W/m2
12:56 10.1 °C 7.9 °C 1025.4 hPa East 3.2 km/h 6.4 km/h 86% 0.0 mm 32 W/m2
13:01 10.2 °C 8 °C 1025.1 hPa NE 3.2 km/h 8 km/h 86% 0.0 mm 33 W/m2
13:06 10.3 °C 7.9 °C 1025.1 hPa Calm   6.4 km/h 85% 0.0 mm 35 W/m2
13:11 10.4 °C 8 °C 1025.1 hPa ESE 1.4 km/h 9.7 km/h 85% 0.0 mm 32 W/m2
13:17 10.7 °C 8.1 °C 1025.1 hPa SE 6.4 km/h 9.7 km/h 84% 0.0 mm 35 W/m2
13:22 10.9 °C 8.1 °C 1025.1 hPa SE 3.2 km/h 8 km/h 83% 0.0 mm 30 W/m2
13:27 11 °C 8 °C 1025.1 hPa East 1.4 km/h 6.4 km/h 82% 0.0 mm 35 W/m2
13:32 11.1 °C 8.1 °C 1024.7 hPa East 4.7 km/h 4.8 km/h 82% 0.0 mm 37 W/m2
13:37 11.1 °C 8.1 °C 1024.7 hPa ESE 3.2 km/h 9.7 km/h 82% 0.0 mm 37 W/m2
13:42 11.1 °C 8.1 °C 1024.7 hPa East 1.4 km/h 12.9 km/h 82% 0.0 mm 30 W/m2
13:47 11.2 °C 8.2 °C 1024.7 hPa Calm   6.4 km/h 82% 0.0 mm 30 W/m2
13:52 11.2 °C 8.1 °C 1024.4 hPa Calm   12.9 km/h 81% 0.0 mm 32 W/m2
13:57 11.3 °C 8.2 °C 1024.4 hPa SE 3.2 km/h 6.4 km/h 81% 0.0 mm 37 W/m2
14:02 11.3 °C 8.2 °C 1024.4 hPa ESE 6.4 km/h 6.4 km/h 81% 0.0 mm 28 W/m2
14:07 11.2 °C 8.1 °C 1024.4 hPa ESE 6.4 km/h 6.4 km/h 81% 0.0 mm 30 W/m2
14:12 11.2 °C 8.1 °C 1024.0 hPa East 3.2 km/h 11.3 km/h 81% 0.0 mm 32 W/m2
14:17 11.2 °C 8.1 °C 1024.0 hPa East 1.4 km/h 11.3 km/h 81% 0.0 mm 33 W/m2
14:22 11.2 °C 8.1 °C 1024.0 hPa East 3.2 km/h 11.3 km/h 81% 0.0 mm 33 W/m2
14:27 11.3 °C 8.2 °C 1024.0 hPa ESE 6.4 km/h 11.3 km/h 81% 0.0 mm 37 W/m2
14:32 11.4 °C 8.3 °C 1024.0 hPa East 4.7 km/h 12.9 km/h 81% 0.0 mm 30 W/m2
14:37 11.4 °C 8.1 °C 1024.0 hPa ESE 7.9 km/h 14.5 km/h 80% 0.0 mm 28 W/m2
14:42 11.4 °C 8.1 °C 1023.7 hPa East 6.4 km/h 14.5 km/h 80% 0.0 mm 26 W/m2
14:47 11.6 °C 8.3 °C 1023.7 hPa ESE 11.1 km/h 16.1 km/h 80% 0.0 mm 25 W/m2
14:52 11.8 °C 8.3 °C 1023.7 hPa ESE 13 km/h 17.7 km/h 79% 0.0 mm 25 W/m2
14:57 11.8 °C 8.3 °C 1023.7 hPa SE 4.7 km/h 16.1 km/h 79% 0.0 mm 25 W/m2
15:02 11.9 °C 8.2 °C 1023.7 hPa SE 13 km/h 17.7 km/h 78% 0.0 mm 23 W/m2
15:07 11.9 °C 8.2 °C 1023.7 hPa ESE 4.7 km/h 11.3 km/h 78% 0.0 mm 23 W/m2
15:12 11.8 °C 8.1 °C 1023.7 hPa East 3.2 km/h 12.9 km/h 78% 0.0 mm 21 W/m2
15:17 11.8 °C 8.1 °C 1023.7 hPa ESE 1.4 km/h 9.7 km/h 78% 0.0 mm 21 W/m2
15:22 11.8 °C 8.3 °C 1023.7 hPa ESE 3.2 km/h 9.7 km/h 79% 0.0 mm 21 W/m2
15:27 11.6 °C 8.1 °C 1023.7 hPa Calm   4.8 km/h 79% 0.0 mm 21 W/m2
15:32 11.4 °C 8.1 °C 1023.7 hPa Calm   9.7 km/h 80% 0.0 mm 21 W/m2
15:37 11.1 °C 8 °C 1023.7 hPa Calm   1.6 km/h 81% 0.0 mm 19 W/m2
15:42 10.8 °C 7.7 °C 1023.4 hPa ESE 7.9 km/h 11.3 km/h 81% 0.0 mm 19 W/m2
15:47 10.6 °C 7.7 °C 1023.4 hPa SE 4.7 km/h 4.8 km/h 82% 0.0 mm 19 W/m2
15:52 10.3 °C 7.5 °C 1023.4 hPa ESE 1.4 km/h 12.9 km/h 83% 0.0 mm 18 W/m2
15:57 10.2 °C 7.6 °C 1023.4 hPa Calm   4.8 km/h 84% 0.0 mm 18 W/m2
16:02 10.2 °C 7.6 °C 1023.0 hPa SE 3.2 km/h 9.7 km/h 84% 0.0 mm 18 W/m2
16:07 10.2 °C 7.6 °C 1023.0 hPa SSE 7.9 km/h 8 km/h 84% 0.0 mm 18 W/m2
16:12 10.1 °C 7.5 °C 1023.4 hPa Calm   6.4 km/h 84% 0.0 mm 16 W/m2
16:17 9.9 °C 7.3 °C 1023.4 hPa East 1.4 km/h 6.4 km/h 84% 0.0 mm 16 W/m2
16:22 9.8 °C 7.4 °C 1023.4 hPa SE 1.4 km/h 1.6 km/h 85% 0.0 mm 14 W/m2
16:28 9.7 °C 7.3 °C 1023.4 hPa Calm   6.4 km/h 85% 0.0 mm 14 W/m2
16:33 9.5 °C 7.1 °C 1023.4 hPa Calm   3.2 km/h 85% 0.0 mm 12 W/m2
16:38 9.3 °C 7.1 °C 1023.4 hPa Calm   4.8 km/h 86% 0.0 mm 12 W/m2
16:43 9.2 °C 7 °C 1023.4 hPa Calm     86% 0.0 mm 11 W/m2
16:48 9.1 °C 7.1 °C 1023.4 hPa Calm     87% 0.0 mm 9 W/m2
16:53 8.9 °C 6.9 °C 1023.4 hPa Calm   1.6 km/h 87% 0.0 mm 7 W/m2
16:58 8.8 °C 6.9 °C 1023.0 hPa Calm     88% 0.0 mm 5 W/m2
17:03 8.7 °C 6.8 °C 1023.0 hPa Calm     88% 0.0 mm 5 W/m2
17:08 8.6 °C 6.7 °C 1023.0 hPa Calm     88% 0.0 mm 0 W/m2
17:13 8.5 °C 6.8 °C 1023.0 hPa Calm     89% 0.0 mm 0 W/m2
17:18 8.4 °C 6.7 °C 1023.0 hPa Calm     89% 0.0 mm 0 W/m2
17:23 8.3 °C 6.6 °C 1023.4 hPa Calm     89% 0.0 mm 0 W/m2
17:28 8.2 °C 6.5 °C 1023.4 hPa Calm     89% 0.0 mm 0 W/m2
17:33 8.1 °C 6.4 °C 1023.4 hPa Calm     89% 0.0 mm 0 W/m2
17:39 7.9 °C 6.4 °C 1023.4 hPa Calm     90% 0.0 mm 0 W/m2
17:44 7.9 °C 6.4 °C 1023.4 hPa Calm     90% 0.0 mm 0 W/m2
17:49 7.8 °C 6.4 °C 1023.4 hPa Calm     91% 0.0 mm 0 W/m2
17:54 7.7 °C 6.3 °C 1023.4 hPa Calm     91% 0.0 mm 0 W/m2
17:59 7.7 °C 6.3 °C 1023.4 hPa Calm     91% 0.0 mm 0 W/m2
18:04 7.6 °C 6.2 °C 1023.4 hPa Calm     91% 0.0 mm 0 W/m2
18:09 7.6 °C 6.4 °C 1023.4 hPa Calm     92% 0.0 mm 0 W/m2
18:14 7.5 °C 6.3 °C 1023.4 hPa Calm     92% 0.0 mm 0 W/m2
18:19 7.4 °C 6.2 °C 1023.4 hPa Calm     92% 0.0 mm 0 W/m2
18:24 7.4 °C 6.2 °C 1023.4 hPa Calm     92% 0.0 mm 0 W/m2
18:29 7.3 °C 6.1 °C 1023.0 hPa Calm     92% 0.0 mm 0 W/m2
18:34 7.3 °C 6.1 °C 1023.0 hPa Calm     92% 0.0 mm 0 W/m2
18:39 7.2 °C 6 °C 1023.4 hPa Calm     92% 0.0 mm 0 W/m2
18:44 7.1 °C 5.9 °C 1023.4 hPa Calm     92% 0.0 mm 0 W/m2
18:49 7 °C 5.8 °C 1023.4 hPa Calm     92% 0.0 mm 0 W/m2
18:54 6.9 °C 5.7 °C 1023.4 hPa Calm     92% 0.0 mm 0 W/m2
18:59 6.8 °C 5.7 °C 1023.0 hPa Calm     93% 0.0 mm 0 W/m2
19:04 6.8 °C 5.7 °C 1023.4 hPa Calm     93% 0.0 mm 0 W/m2
19:09 6.8 °C 5.7 °C 1023.4 hPa Calm     93% 0.0 mm 0 W/m2
19:14 6.8 °C 5.7 °C 1023.4 hPa Calm     93% 0.0 mm 0 W/m2
19:20 6.8 °C 5.7 °C 1023.4 hPa Calm     93% 0.0 mm 0 W/m2
19:25 6.7 °C 5.8 °C 1023.4 hPa Calm   1.6 km/h 94% 0.0 mm 0 W/m2
19:30 6.7 °C 5.8 °C 1023.4 hPa Calm     94% 0.0 mm 0 W/m2
19:35 6.7 °C 5.8 °C 1023.4 hPa Calm     94% 0.0 mm 0 W/m2
19:40 6.7 °C 5.8 °C 1023.4 hPa NE 8 km/h 8 km/h 94% 0.0 mm 0 W/m2
19:45 6.6 °C 5.5 °C 1023.4 hPa Calm     93% 0.0 mm 0 W/m2
19:50 6.5 °C 5.6 °C 1023.4 hPa Calm   6.4 km/h 94% 0.0 mm 0 W/m2
19:55 6.4 °C 5.5 °C 1023.0 hPa Calm     94% 0.0 mm 0 W/m2
20:00 6.3 °C 5.4 °C 1023.0 hPa Calm     94% 0.0 mm 0 W/m2
20:05 6.2 °C 5.3 °C 1023.0 hPa Calm   1.6 km/h 94% 0.0 mm 0 W/m2
20:10 6.2 °C 5.3 °C 1023.0 hPa Calm     94% 0.0 mm 0 W/m2
20:15 6.1 °C 5.2 °C 1023.0 hPa Calm     94% 0.0 mm 0 W/m2
20:20 6.1 °C 5.2 °C 1023.0 hPa Calm   4.8 km/h 94% 0.0 mm 0 W/m2
20:25 6 °C 5.1 °C 1023.0 hPa Calm     94% 0.0 mm 0 W/m2
20:30 5.9 °C 5 °C 1023.0 hPa Calm   4.8 km/h 94% 0.0 mm 0 W/m2
20:35 5.9 °C 5 °C 1023.0 hPa Calm     94% 0.0 mm 0 W/m2
20:40 5.8 °C 4.9 °C 1023.0 hPa SSW 3.2 km/h 4.8 km/h 94% 0.0 mm 0 W/m2
20:45 5.8 °C 4.9 °C 1023.0 hPa Calm     94% 0.0 mm 0 W/m2
20:50 5.7 °C 4.8 °C 1022.7 hPa Calm   4.8 km/h 94% 0.0 mm 0 W/m2
20:55 5.7 °C 4.8 °C 1022.7 hPa Calm     94% 0.0 mm 0 W/m2
21:00 5.7 °C 5 °C 1022.7 hPa Calm   1.6 km/h 95% 0.0 mm 0 W/m2
21:05 5.6 °C 4.9 °C 1022.7 hPa SW 1.4 km/h 1.6 km/h 95% 0.0 mm 0 W/m2
21:10 5.6 °C 4.9 °C 1022.4 hPa Calm     95% 0.0 mm 0 W/m2
21:15 5.6 °C 4.9 °C 1022.4 hPa Calm   1.6 km/h 95% 0.0 mm 0 W/m2
21:20 5.5 °C 4.8 °C 1022.4 hPa Calm     95% 0.0 mm 0 W/m2
21:25 5.4 °C 4.7 °C 1022.4 hPa Calm   1.6 km/h 95% 0.0 mm 0 W/m2
21:30 5.4 °C 4.7 °C 1022.4 hPa Calm     95% 0.0 mm 0 W/m2
21:35 5.3 °C 4.6 °C 1022.4 hPa Calm     95% 0.0 mm 0 W/m2
21:40 5.3 °C 4.6 °C 1022.0 hPa ENE 3.2 km/h 3.2 km/h 95% 0.0 mm 0 W/m2
21:45 5.2 °C 4.5 °C 1022.0 hPa Calm     95% 0.0 mm 0 W/m2
21:50 5.2 °C 4.5 °C 1022.0 hPa Calm     95% 0.0 mm 0 W/m2
21:55 5.1 °C 4.4 °C 1022.0 hPa Calm   6.4 km/h 95% 0.0 mm 0 W/m2
22:00 5.1 °C 4.4 °C 1022.0 hPa Calm   8 km/h 95% 0.0 mm 0 W/m2
22:05 5 °C 4.3 °C 1022.0 hPa Calm   1.6 km/h 95% 0.0 mm 0 W/m2
22:10 4.9 °C 4.2 °C 1021.7 hPa Calm     95% 0.0 mm 0 W/m2
22:15 4.8 °C 4.1 °C 1021.7 hPa Calm     95% 0.0 mm 0 W/m2
22:20 4.8 °C 4.1 °C 1021.7 hPa Calm     95% 0.0 mm 0 W/m2
22:25 4.7 °C 4 °C 1021.7 hPa Calm     95% 0.0 mm 0 W/m2
22:30 4.7 °C 4 °C 1021.7 hPa Calm     95% 0.0 mm 0 W/m2
22:35 4.6 °C 3.9 °C 1021.3 hPa Calm     95% 0.0 mm 0 W/m2
22:40 4.5 °C 3.8 °C 1021.3 hPa Calm     95% 0.0 mm 0 W/m2
22:45 4.4 °C 3.7 °C 1021.3 hPa Calm     95% 0.0 mm 0 W/m2
22:50 4.4 °C 3.7 °C 1021.3 hPa Calm     95% 0.0 mm 0 W/m2
22:55 4.3 °C 3.6 °C 1021.3 hPa Calm     95% 0.0 mm 0 W/m2
23:00 4.3 °C 3.6 °C 1021.3 hPa Calm     95% 0.0 mm 0 W/m2
23:05 4.2 °C 3.5 °C 1021.3 hPa Calm     95% 0.0 mm 0 W/m2
23:10 4.3 °C 3.7 °C 1021.3 hPa Calm     96% 0.0 mm 0 W/m2
23:15 4.3 °C 3.7 °C 1021.3 hPa Calm     96% 0.0 mm 0 W/m2
23:21 4.3 °C 3.7 °C 1021.3 hPa Calm     96% 0.0 mm 0 W/m2
23:26 4.3 °C 3.7 °C 1021.3 hPa Calm     96% 0.0 mm 0 W/m2
23:31 4.2 °C 3.6 °C 1021.3 hPa Calm     96% 0.0 mm 0 W/m2
23:36 4.2 °C 3.6 °C 1021.3 hPa Calm     96% 0.0 mm 0 W/m2
23:41 4.1 °C 3.5 °C 1021.3 hPa Calm     96% 0.0 mm 0 W/m2
23:46 4 °C 3.3 °C 1021.3 hPa Calm     95% 0.0 mm 0 W/m2
23:51 3.9 °C 3.2 °C 1021.3 hPa Calm     95% 0.0 mm 0 W/m2
23:56 3.9 °C 3.3 °C 1021.3 hPa Calm     96% 0.0 mm 0 W/m2
Juneau County Weather
Compliments of Weather Underground - 4 mb